createdAt,value
2022-12-03T00:02:01.299Z,1.77
2022-12-03T00:05:11.985Z,1.50
2022-12-03T00:08:20.365Z,1.60
2022-12-03T00:11:28.669Z,1.60
2022-12-03T00:14:42.923Z,1.60
2022-12-03T00:17:52.843Z,1.50
2022-12-03T00:21:02.716Z,1.70
2022-12-03T00:24:10.982Z,1.70
2022-12-03T00:27:19.324Z,1.43
2022-12-03T00:30:27.649Z,1.73
2022-12-03T00:33:35.946Z,1.80
2022-12-03T00:36:45.639Z,1.50
2022-12-03T00:39:53.945Z,1.53
2022-12-03T00:43:02.213Z,1.60
2022-12-03T00:46:10.629Z,1.80
2022-12-03T00:49:18.953Z,1.70
2022-12-03T00:52:28.764Z,1.70
2022-12-03T00:55:37.105Z,1.77
2022-12-03T00:58:45.493Z,1.80
2022-12-03T01:01:53.894Z,1.47
2022-12-03T01:05:02.412Z,1.60
2022-12-03T01:08:12.449Z,1.60
2022-12-03T01:11:40.524Z,1.80
2022-12-03T01:14:49.222Z,1.73
2022-12-03T01:17:57.529Z,2.00
2022-12-03T01:21:06.038Z,1.83
2022-12-03T01:24:15.773Z,2.10
2022-12-03T01:27:24.102Z,1.80
2022-12-03T01:30:53.150Z,2.00
2022-12-03T01:34:00.505Z,1.63
2022-12-03T01:37:08.814Z,1.90
2022-12-03T01:40:22.405Z,1.90
2022-12-03T01:43:30.860Z,2.33
2022-12-03T01:46:41.346Z,2.07
2022-12-03T01:49:53.022Z,2.03
2022-12-03T01:53:04.037Z,2.40
2022-12-03T01:56:15.712Z,2.10
2022-12-03T01:59:31.978Z,2.53
2022-12-03T02:02:40.426Z,2.23
2022-12-03T02:05:48.791Z,2.20
2022-12-03T02:08:59.746Z,2.37
2022-12-03T02:12:09.719Z,1.97
2022-12-03T02:15:18.100Z,2.33
2022-12-03T02:18:26.662Z,2.23
2022-12-03T02:21:43.696Z,2.13
2022-12-03T02:24:59.963Z,2.40
2022-12-03T02:28:11.141Z,2.60
2022-12-03T02:31:19.604Z,2.47
2022-12-03T02:34:39.160Z,2.70
2022-12-03T02:37:48.650Z,2.70
2022-12-03T02:41:00.554Z,2.90
2022-12-03T02:44:09.862Z,2.90
2022-12-03T02:47:18.328Z,2.73
2022-12-03T02:50:30.144Z,2.70
2022-12-03T02:53:42.597Z,2.80
2022-12-03T02:56:51.147Z,2.67
2022-12-03T03:00:00.958Z,3.00
2022-12-03T03:03:10.184Z,2.83
2022-12-03T03:06:20.303Z,3.10
2022-12-03T03:09:28.658Z,2.77
2022-12-03T03:12:39.405Z,3.17
2022-12-03T03:15:49.481Z,3.13
2022-12-03T03:18:57.782Z,3.40
2022-12-03T03:22:06.183Z,3.07
2022-12-03T03:25:17.858Z,2.60
2022-12-03T03:28:27.654Z,2.97
2022-12-03T03:31:38.025Z,3.20
2022-12-03T03:34:46.401Z,3.07
2022-12-03T03:37:55.643Z,3.00
2022-12-03T03:41:06.098Z,3.70
2022-12-03T03:44:15.080Z,3.07
2022-12-03T03:47:25.770Z,3.80
2022-12-03T03:50:34.264Z,3.27
2022-12-03T03:53:45.724Z,3.13
2022-12-03T03:56:54.312Z,3.30
2022-12-03T04:00:04.899Z,3.33
2022-12-03T04:03:15.665Z,3.53
2022-12-03T04:06:23.993Z,3.43
2022-12-03T04:09:47.395Z,3.63
2022-12-03T04:12:57.654Z,3.73
2022-12-03T04:16:06.273Z,4.00
2022-12-03T04:19:16.035Z,3.83
2022-12-03T04:22:42.448Z,3.97
2022-12-03T04:26:08.453Z,3.80
2022-12-03T04:29:16.811Z,3.80
2022-12-03T04:32:42.367Z,4.13
2022-12-03T04:35:52.210Z,4.30
2022-12-03T04:39:00.735Z,3.97
2022-12-03T04:42:09.400Z,3.80
2022-12-03T04:45:17.800Z,4.30
2022-12-03T04:48:26.141Z,3.80
2022-12-03T04:51:35.829Z,4.40
2022-12-03T04:54:44.740Z,4.03
2022-12-03T04:57:53.047Z,4.13
2022-12-03T05:01:01.412Z,4.30
2022-12-03T05:04:09.745Z,4.13
2022-12-03T05:07:19.377Z,4.40
2022-12-03T05:10:27.797Z,4.27
2022-12-03T05:13:36.328Z,4.33
2022-12-03T05:16:44.744Z,4.60
2022-12-03T05:20:10.654Z,4.23
2022-12-03T05:23:20.423Z,4.33
2022-12-03T05:26:28.828Z,4.70
2022-12-03T05:29:37.135Z,4.73
2022-12-03T05:32:45.405Z,4.43
2022-12-03T05:35:53.675Z,4.30
2022-12-03T05:39:03.333Z,4.30
2022-12-03T05:42:29.261Z,4.30
2022-12-03T05:45:39.322Z,4.00
2022-12-03T05:48:47.630Z,4.57
2022-12-03T05:51:58.593Z,4.80
2022-12-03T05:55:09.846Z,4.87
2022-12-03T05:58:18.150Z,4.53
2022-12-03T06:01:26.464Z,4.53
2022-12-03T06:04:34.967Z,4.87
2022-12-03T06:07:43.757Z,5.00
2022-12-03T06:10:53.562Z,4.27
2022-12-03T06:14:02.105Z,4.40
2022-12-03T06:17:10.543Z,4.30
2022-12-03T06:20:21.005Z,4.47
2022-12-03T06:23:29.478Z,4.23
2022-12-03T06:26:39.117Z,4.50
2022-12-03T06:29:47.502Z,3.90
2022-12-03T06:32:55.843Z,4.83
2022-12-03T06:36:04.781Z,4.10
2022-12-03T06:39:13.088Z,4.40
2022-12-03T06:42:22.783Z,4.30
2022-12-03T06:45:31.060Z,4.00
2022-12-03T06:48:39.552Z,3.63
2022-12-03T06:51:47.808Z,3.67
2022-12-03T06:54:56.380Z,3.97
2022-12-03T06:58:06.335Z,3.90
2022-12-03T07:01:16.075Z,4.10
2022-12-03T07:04:24.399Z,3.97
2022-12-03T07:07:32.869Z,4.10
2022-12-03T07:10:41.189Z,3.67
2022-12-03T07:13:50.893Z,3.77
2022-12-03T07:16:59.257Z,4.07
2022-12-03T07:20:10.045Z,3.63
2022-12-03T07:23:18.337Z,4.03
2022-12-03T07:26:26.663Z,3.77
2022-12-03T07:29:36.347Z,3.70
2022-12-03T07:32:44.683Z,4.07
2022-12-03T07:35:52.983Z,3.80
2022-12-03T07:39:01.284Z,3.77
2022-12-03T07:42:09.752Z,3.53
2022-12-03T07:45:19.521Z,3.50
2022-12-03T07:48:27.955Z,4.03
2022-12-03T07:51:36.250Z,3.87
2022-12-03T07:54:44.818Z,3.60
2022-12-03T07:57:53.211Z,3.87
2022-12-03T08:01:03.038Z,3.70
2022-12-03T08:04:12.943Z,3.63
2022-12-03T08:07:21.311Z,3.43
2022-12-03T08:10:29.760Z,3.03
2022-12-03T08:13:38.144Z,3.33
2022-12-03T08:16:49.134Z,4.03
2022-12-03T08:19:57.822Z,3.50
2022-12-03T08:23:13.030Z,2.80
2022-12-03T08:26:24.048Z,3.70
2022-12-03T08:29:32.867Z,3.47
2022-12-03T08:32:42.892Z,3.30
2022-12-03T08:35:52.185Z,3.30
2022-12-03T08:39:03.708Z,3.67
2022-12-03T08:42:35.149Z,3.30
2022-12-03T08:45:44.196Z,3.10
2022-12-03T08:48:54.004Z,3.00
2022-12-03T08:52:04.567Z,3.27
2022-12-03T08:55:35.294Z,3.13
2022-12-03T08:58:45.337Z,3.07
2022-12-03T09:01:55.164Z,3.00
2022-12-03T09:05:17.296Z,3.17
2022-12-03T09:08:25.741Z,3.43
2022-12-03T09:11:34.098Z,3.27
2022-12-03T09:14:42.410Z,3.03
2022-12-03T09:17:50.686Z,2.80
2022-12-03T09:21:00.418Z,3.47
2022-12-03T09:24:09.259Z,3.60
2022-12-03T09:27:17.632Z,2.90
2022-12-03T09:30:25.991Z,3.20
2022-12-03T09:33:34.280Z,3.03
2022-12-03T09:36:43.942Z,3.30
2022-12-03T09:39:52.241Z,3.60
2022-12-03T09:43:00.974Z,3.30
2022-12-03T09:46:10.548Z,2.80
2022-12-03T09:49:20.923Z,3.17
2022-12-03T09:52:34.719Z,2.97
2022-12-03T09:55:45.193Z,3.10
2022-12-03T09:58:53.969Z,2.87
2022-12-03T10:02:03.770Z,3.17
2022-12-03T10:05:12.402Z,3.33
2022-12-03T10:08:29.399Z,3.80
2022-12-03T10:11:40.321Z,2.90
2022-12-03T10:14:48.707Z,3.20
2022-12-03T10:17:58.577Z,3.20
2022-12-03T10:21:17.915Z,3.10
2022-12-03T10:24:29.853Z,2.97
2022-12-03T10:27:38.363Z,2.80
2022-12-03T10:30:55.661Z,3.00
2022-12-03T10:34:03.991Z,3.23
2022-12-03T10:37:15.793Z,3.20
2022-12-03T10:40:28.111Z,3.13
2022-12-03T10:43:36.369Z,2.73
2022-12-03T10:46:45.234Z,3.50
2022-12-03T10:50:04.349Z,3.20
2022-12-03T10:53:13.549Z,3.20
2022-12-03T10:56:26.673Z,2.90
2022-12-03T10:59:36.077Z,3.10
2022-12-03T11:02:44.621Z,3.17
2022-12-03T11:05:53.738Z,3.47
2022-12-03T11:09:08.826Z,3.40
2022-12-03T11:12:22.438Z,3.57
2022-12-03T11:15:44.060Z,2.92
2022-12-03T11:19:03.611Z,3.43
2022-12-03T11:22:26.009Z,3.70
2022-12-03T11:25:50.662Z,3.00
2022-12-03T11:29:00.939Z,3.50
2022-12-03T11:32:09.319Z,3.37
2022-12-03T11:35:28.430Z,3.87
2022-12-03T11:38:53.316Z,3.30
2022-12-03T11:42:30.026Z,3.13
2022-12-03T11:45:40.403Z,3.70
2022-12-03T11:48:50.663Z,3.30
2022-12-03T11:51:59.758Z,3.57
2022-12-03T11:55:17.767Z,3.60
2022-12-03T11:58:29.293Z,3.47
2022-12-03T12:01:41.402Z,3.50
2022-12-03T12:04:49.713Z,3.77
2022-12-03T12:07:58.469Z,3.90
2022-12-03T12:11:18.307Z,3.40
2022-12-03T12:14:28.503Z,3.57
2022-12-03T12:17:38.511Z,3.30
2022-12-03T12:20:46.810Z,3.90
2022-12-03T12:23:55.135Z,3.53
2022-12-03T12:27:06.725Z,3.57
2022-12-03T12:30:17.256Z,3.47
2022-12-03T12:33:27.051Z,3.43
2022-12-03T12:36:35.853Z,3.00
2022-12-03T12:39:44.286Z,3.23
2022-12-03T12:42:54.462Z,3.37
2022-12-03T12:46:45.400Z,3.70
2022-12-03T12:49:40.352Z,3.67
2022-12-03T12:52:54.951Z,3.30
2022-12-03T12:56:09.147Z,3.20
2022-12-03T12:59:19.922Z,3.17
2022-12-03T13:02:43.335Z,3.40
2022-12-03T13:05:54.384Z,3.13
2022-12-03T13:09:02.725Z,3.20
2022-12-03T13:12:20.673Z,3.40
2022-12-03T13:15:42.990Z,3.40
2022-12-03T13:18:54.906Z,3.30
2022-12-03T13:22:13.959Z,3.03
2022-12-03T13:29:12.837Z,3.10
2022-12-03T13:32:23.384Z,3.37
2022-12-03T13:35:35.355Z,3.13
2022-12-03T13:38:46.320Z,3.57
2022-12-03T13:42:12.784Z,3.43
2022-12-03T13:45:38.494Z,3.20
2022-12-03T13:48:47.545Z,3.30
2022-12-03T13:51:55.889Z,3.40
2022-12-03T13:55:08.397Z,3.87
2022-12-03T13:58:16.889Z,3.03
2022-12-03T14:01:25.381Z,3.23
2022-12-03T14:04:33.732Z,3.50
2022-12-03T14:07:42.183Z,3.03
2022-12-03T14:10:55.509Z,2.67
2022-12-03T14:14:06.983Z,2.60
2022-12-03T14:17:15.416Z,3.10
2022-12-03T14:20:24.077Z,2.73
2022-12-03T14:23:32.503Z,2.90
2022-12-03T14:26:42.259Z,2.80
2022-12-03T14:29:50.547Z,2.77
2022-12-03T14:32:58.802Z,3.00
2022-12-03T14:36:07.506Z,2.87
2022-12-03T14:39:15.855Z,3.03
2022-12-03T14:42:25.575Z,2.67
2022-12-03T14:45:33.965Z,2.67
2022-12-03T14:48:42.362Z,2.63
2022-12-03T14:51:50.723Z,2.83
2022-12-03T14:54:59.071Z,2.80
2022-12-03T14:58:08.766Z,2.93
2022-12-03T15:01:17.154Z,2.97
2022-12-03T15:04:25.555Z,3.10
2022-12-03T15:07:34.677Z,3.00
2022-12-03T15:10:43.022Z,3.43
2022-12-03T15:13:52.777Z,3.20
2022-12-03T15:17:01.130Z,2.73
2022-12-03T15:20:10.611Z,2.93
2022-12-03T15:23:18.976Z,2.97
2022-12-03T15:26:27.318Z,3.30
2022-12-03T15:29:37.206Z,2.83
2022-12-03T15:32:45.593Z,3.13
2022-12-03T15:35:53.930Z,2.70
2022-12-03T15:39:02.448Z,2.90
2022-12-03T15:42:12.441Z,3.20
2022-12-03T15:45:22.238Z,2.93
2022-12-03T15:48:30.556Z,3.00
2022-12-03T15:51:38.897Z,3.10
2022-12-03T15:54:49.546Z,3.00
2022-12-03T15:57:57.859Z,3.03
2022-12-03T16:01:08.073Z,3.33
2022-12-03T16:04:16.491Z,3.20
2022-12-03T16:07:25.011Z,2.83
2022-12-03T16:10:33.555Z,2.93
2022-12-03T16:13:41.900Z,3.33
2022-12-03T16:16:52.088Z,3.30
2022-12-03T16:20:00.366Z,3.10
2022-12-03T16:23:08.799Z,2.73
2022-12-03T16:26:17.137Z,3.37
2022-12-03T16:29:25.426Z,2.60
2022-12-03T16:32:37.649Z,3.27
2022-12-03T16:35:46.442Z,3.00
2022-12-03T16:38:54.746Z,3.07
2022-12-03T16:42:03.949Z,3.27
2022-12-03T16:45:51.028Z,3.00
2022-12-03T16:49:00.955Z,3.23
2022-12-03T16:52:09.262Z,2.70
2022-12-03T16:55:17.868Z,3.03
2022-12-03T16:58:26.545Z,3.07
2022-12-03T17:01:35.065Z,3.00
2022-12-03T17:04:45.241Z,3.20
2022-12-03T17:07:53.895Z,3.00
2022-12-03T17:11:02.329Z,4.40
2022-12-03T17:14:10.727Z,3.30
2022-12-03T17:17:19.044Z,3.23
2022-12-03T17:20:28.850Z,3.23
2022-12-03T17:23:37.334Z,3.27
2022-12-03T17:26:46.398Z,3.10
2022-12-03T17:29:54.931Z,3.13
2022-12-03T17:33:03.586Z,3.50
2022-12-03T17:36:13.296Z,2.80
2022-12-03T17:39:21.705Z,2.80
2022-12-03T17:42:30.072Z,2.87
2022-12-03T17:45:38.396Z,3.07
2022-12-03T17:48:46.681Z,2.90
2022-12-03T17:51:56.431Z,2.70
2022-12-03T17:55:21.250Z,2.87
2022-12-03T17:58:33.853Z,2.70
2022-12-03T18:01:43.724Z,2.77
2022-12-03T18:04:52.107Z,2.93
2022-12-03T18:08:01.879Z,2.60
2022-12-03T18:11:10.253Z,2.90
2022-12-03T18:14:18.604Z,2.77
2022-12-03T18:17:26.953Z,2.83
2022-12-03T18:20:35.386Z,2.80
2022-12-03T18:23:45.239Z,2.83
2022-12-03T18:26:53.534Z,2.80
2022-12-03T18:30:01.863Z,2.80
2022-12-03T18:33:10.433Z,2.57
2022-12-03T18:36:21.650Z,2.60
2022-12-03T18:39:35.772Z,2.50
2022-12-03T18:42:44.052Z,2.50
2022-12-03T18:45:52.370Z,2.67
2022-12-03T18:49:02.685Z,2.70
2022-12-03T18:52:13.331Z,2.60
2022-12-03T18:55:23.490Z,2.70
2022-12-03T18:58:31.865Z,2.60
2022-12-03T19:01:40.238Z,2.67
2022-12-03T19:04:48.748Z,2.90
2022-12-03T19:07:57.267Z,2.80
2022-12-03T19:11:07.457Z,2.53
2022-12-03T19:14:15.915Z,2.93
2022-12-03T19:17:24.328Z,2.83
2022-12-03T19:20:32.784Z,2.90
2022-12-03T19:23:47.280Z,2.40
2022-12-03T19:27:08.698Z,2.83
2022-12-03T19:30:17.529Z,2.50
2022-12-03T19:33:28.682Z,2.40
2022-12-03T19:36:37.383Z,2.07
2022-12-03T19:39:45.858Z,2.53
2022-12-03T19:42:55.563Z,2.63
2022-12-03T19:46:05.197Z,2.53
2022-12-03T19:49:13.667Z,2.10
2022-12-03T19:52:22.235Z,2.50
2022-12-03T19:55:30.513Z,2.30
2022-12-03T19:58:41.199Z,2.40
2022-12-03T20:01:49.690Z,2.50
2022-12-03T20:04:58.094Z,2.30
2022-12-03T20:08:07.063Z,2.60
2022-12-03T20:11:17.342Z,2.40
2022-12-03T20:14:27.053Z,2.33
2022-12-03T20:17:35.410Z,2.30
2022-12-03T20:20:43.738Z,2.27
2022-12-03T20:23:52.247Z,2.57
2022-12-03T20:27:00.531Z,2.40
2022-12-03T20:30:11.424Z,2.23
2022-12-03T20:33:19.706Z,2.17
2022-12-03T20:36:29.664Z,2.50
2022-12-03T20:39:38.101Z,2.17
2022-12-03T20:42:48.998Z,2.57
2022-12-03T20:46:02.747Z,2.10
2022-12-03T20:49:11.283Z,1.87
2022-12-03T20:52:19.637Z,2.40
2022-12-03T20:55:27.921Z,2.53
2022-12-03T20:58:36.583Z,2.20
2022-12-03T21:01:47.320Z,2.27
2022-12-03T21:04:55.939Z,1.93
2022-12-03T21:08:04.427Z,2.03
2022-12-03T21:11:14.647Z,2.00
2022-12-03T21:14:23.051Z,2.60
2022-12-03T21:17:32.780Z,2.57
2022-12-03T21:20:42.089Z,2.13
2022-12-03T21:23:50.487Z,2.13
2022-12-03T21:26:58.927Z,2.47
2022-12-03T21:30:08.737Z,2.20
2022-12-03T21:33:18.496Z,2.10
2022-12-03T21:36:27.503Z,2.00
2022-12-03T21:39:36.085Z,1.80
2022-12-03T21:42:44.429Z,1.80
2022-12-03T21:45:53.392Z,2.20
2022-12-03T21:49:03.297Z,1.90
2022-12-03T21:52:11.650Z,1.77
2022-12-03T21:55:20.044Z,1.90
2022-12-03T21:58:28.523Z,1.70
2022-12-03T22:01:36.908Z,2.30
2022-12-03T22:04:50.892Z,1.93
2022-12-03T22:07:59.321Z,2.10
2022-12-03T22:11:09.466Z,1.90
2022-12-03T22:14:17.781Z,2.00
2022-12-03T22:17:26.479Z,2.00
2022-12-03T22:20:36.178Z,2.13
2022-12-03T22:23:45.049Z,2.10
2022-12-03T22:26:54.915Z,2.00
2022-12-03T22:30:03.482Z,1.70
2022-12-03T22:33:11.790Z,2.20
2022-12-03T22:36:22.102Z,1.80
2022-12-03T22:39:30.462Z,2.00
2022-12-03T22:42:38.938Z,2.00
2022-12-03T22:45:47.537Z,2.13
2022-12-03T22:48:55.919Z,1.87
2022-12-03T22:52:05.695Z,1.87
2022-12-03T22:55:14.031Z,2.00
2022-12-03T22:58:22.617Z,2.37
2022-12-03T23:01:32.760Z,1.80
2022-12-03T23:04:41.099Z,1.80
2022-12-03T23:07:52.079Z,2.17
2022-12-03T23:11:01.952Z,1.93
2022-12-03T23:14:10.308Z,2.10
2022-12-03T23:17:18.571Z,2.20
2022-12-03T23:20:27.257Z,2.30
2022-12-03T23:23:37.029Z,2.20
2022-12-03T23:26:45.314Z,2.13
2022-12-03T23:29:53.839Z,2.10
2022-12-03T23:33:02.499Z,2.20
2022-12-03T23:36:11.939Z,2.07
2022-12-03T23:39:21.612Z,1.93
2022-12-03T23:42:30.005Z,1.80
2022-12-03T23:45:38.289Z,1.77
2022-12-03T23:48:46.749Z,2.20
2022-12-03T23:51:55.060Z,2.00
2022-12-03T23:55:05.480Z,1.90
2022-12-03T23:58:13.793Z,1.90
